createdAt,value
2019-03-04T00:01:16.853Z,22.17
2019-03-04T00:03:47.354Z,23.67
2019-03-04T00:06:17.826Z,22.00
2019-03-04T00:08:48.334Z,22.13
2019-03-04T00:11:18.803Z,23.93
2019-03-04T00:13:49.282Z,21.90
2019-03-04T00:16:19.789Z,22.20
2019-03-04T00:18:50.249Z,22.97
2019-03-04T00:21:20.750Z,22.10
2019-03-04T00:23:51.202Z,22.93
2019-03-04T00:26:21.690Z,21.77
2019-03-04T00:28:52.176Z,21.57
2019-03-04T00:31:22.777Z,21.53
2019-03-04T00:33:53.400Z,22.00
2019-03-04T00:36:23.905Z,21.83
2019-03-04T00:38:54.410Z,22.83
2019-03-04T00:41:24.923Z,22.27
2019-03-04T00:43:55.377Z,21.90
2019-03-04T00:46:27.154Z,23.23
2019-03-04T00:48:57.613Z,23.63
2019-03-04T00:51:28.080Z,24.27
2019-03-04T00:53:58.578Z,25.13
2019-03-04T00:56:29.078Z,28.97
2019-03-04T00:58:59.576Z,33.37
2019-03-04T01:01:30.086Z,33.67
2019-03-04T01:04:00.565Z,34.10
2019-03-04T01:06:31.084Z,35.17
2019-03-04T01:09:01.541Z,36.77
2019-03-04T01:11:32.042Z,34.83
2019-03-04T01:14:02.510Z,34.43
2019-03-04T01:16:33.012Z,34.87
2019-03-04T01:19:03.526Z,34.33
2019-03-04T01:21:33.972Z,33.03
2019-03-04T01:24:04.534Z,34.77
2019-03-04T01:26:35.034Z,35.37
2019-03-04T01:29:05.624Z,34.57
2019-03-04T01:31:36.206Z,33.13
2019-03-04T01:34:06.692Z,33.17
2019-03-04T01:36:37.150Z,33.60
2019-03-04T01:39:07.992Z,33.27
2019-03-04T01:41:38.447Z,34.87
2019-03-04T01:44:08.920Z,33.27
2019-03-04T01:46:39.421Z,33.83
2019-03-04T01:49:09.926Z,34.37
2019-03-04T01:51:40.394Z,32.57
2019-03-04T01:54:10.903Z,33.23
2019-03-04T01:56:41.399Z,33.57
2019-03-04T01:59:11.852Z,32.97
2019-03-04T02:01:42.376Z,34.73
2019-03-04T02:04:12.848Z,32.80
2019-03-04T02:06:43.314Z,31.60
2019-03-04T02:09:14.228Z,33.73
2019-03-04T02:11:44.688Z,33.33
2019-03-04T02:14:15.136Z,32.90
2019-03-04T02:16:45.625Z,34.00
2019-03-04T02:19:16.077Z,33.20
2019-03-04T02:21:46.573Z,31.57
2019-03-04T02:24:27.227Z,31.83
2019-03-04T02:26:59.256Z,32.17
2019-03-04T02:29:29.748Z,29.27
2019-03-04T02:32:00.198Z,29.73
2019-03-04T02:34:30.686Z,29.03
2019-03-04T02:37:01.281Z,29.90
2019-03-04T02:39:31.753Z,29.30
2019-03-04T02:42:02.210Z,27.87
2019-03-04T02:44:32.721Z,28.03
2019-03-04T02:47:03.235Z,27.27
2019-03-04T02:49:33.674Z,28.50
2019-03-04T02:52:04.193Z,28.13
2019-03-04T02:54:34.649Z,26.53
2019-03-04T02:57:05.194Z,28.63
2019-03-04T02:59:35.685Z,28.60
2019-03-04T03:02:08.246Z,28.70
2019-03-04T03:04:38.777Z,28.93
2019-03-04T03:07:09.233Z,27.17
2019-03-04T03:09:39.686Z,28.63
2019-03-04T03:12:10.219Z,27.70
2019-03-04T03:14:40.738Z,27.80
2019-03-04T03:17:11.225Z,26.53
2019-03-04T03:19:41.735Z,27.97
2019-03-04T03:22:12.184Z,29.37
2019-03-04T03:24:42.670Z,30.00
2019-03-04T03:27:13.191Z,30.30
2019-03-04T03:29:43.617Z,29.33
2019-03-04T03:32:14.087Z,29.10
2019-03-04T03:34:44.575Z,30.30
2019-03-04T03:37:15.081Z,28.83
2019-03-04T03:39:45.590Z,29.13
2019-03-04T03:42:18.830Z,27.80
2019-03-04T03:44:48.240Z,28.40
2019-03-04T03:47:18.745Z,27.70
2019-03-04T03:49:49.196Z,27.67
2019-03-04T03:52:19.664Z,27.63
2019-03-04T03:54:50.159Z,28.27
2019-03-04T03:57:20.719Z,28.57
2019-03-04T03:59:51.211Z,27.40
2019-03-04T04:02:21.667Z,26.93
2019-03-04T04:04:52.177Z,29.97
2019-03-04T04:07:22.730Z,29.80
2019-03-04T04:09:53.768Z,29.37
2019-03-04T04:12:24.270Z,27.07
2019-03-04T04:14:54.724Z,25.10
2019-03-04T04:17:25.224Z,26.23
2019-03-04T04:19:55.677Z,26.63
2019-03-04T04:22:26.267Z,26.67
2019-03-04T04:24:56.817Z,26.93
2019-03-04T04:27:27.326Z,27.50
2019-03-04T04:29:57.793Z,25.67
2019-03-04T04:32:28.293Z,25.77
2019-03-04T04:34:58.791Z,25.87
2019-03-04T04:37:29.254Z,26.53
2019-03-04T04:39:59.857Z,24.47
2019-03-04T04:42:30.362Z,26.03
2019-03-04T04:45:00.870Z,25.93
2019-03-04T04:47:31.371Z,25.63
2019-03-04T04:50:01.825Z,24.43
2019-03-04T04:52:32.292Z,25.37
2019-03-04T04:55:02.818Z,25.07
2019-03-04T04:57:33.267Z,24.43
2019-03-04T05:00:03.933Z,24.00
2019-03-04T05:02:34.441Z,22.23
2019-03-04T05:05:05.118Z,22.73
2019-03-04T05:07:35.671Z,23.63
2019-03-04T05:10:08.681Z,23.70
2019-03-04T05:12:39.187Z,24.53
2019-03-04T05:15:10.864Z,23.33
2019-03-04T05:17:41.378Z,24.93
2019-03-04T05:20:14.289Z,24.30
2019-03-04T05:22:44.901Z,28.67
2019-03-04T05:25:15.495Z,72.93
2019-03-04T05:27:45.999Z,24.40
2019-03-04T05:30:18.540Z,35.03
2019-03-04T05:32:49.137Z,44.53
2019-03-04T05:35:19.789Z,33.27
2019-03-04T05:37:50.346Z,28.37
2019-03-04T05:40:20.864Z,22.50
2019-03-04T05:42:51.331Z,26.40
2019-03-04T05:45:21.932Z,22.13
2019-03-04T05:47:52.422Z,23.07
2019-03-04T05:50:22.918Z,20.73
2019-03-04T05:52:53.521Z,19.50
2019-03-04T05:55:23.979Z,21.03
2019-03-04T05:57:54.490Z,21.20
2019-03-04T06:00:26.260Z,20.90
2019-03-04T06:02:56.888Z,21.27
2019-03-04T06:05:27.370Z,20.90
2019-03-04T06:08:00.527Z,21.83
2019-03-04T06:10:31.023Z,21.43
2019-03-04T06:13:01.475Z,21.17
2019-03-04T06:15:31.941Z,21.33
2019-03-04T06:18:02.545Z,21.97
2019-03-04T06:20:33.045Z,22.87
2019-03-04T06:23:03.529Z,23.57
2019-03-04T06:25:33.989Z,22.40
2019-03-04T06:28:04.484Z,23.50
2019-03-04T06:30:34.974Z,22.73
2019-03-04T06:33:05.436Z,22.70
2019-03-04T06:35:35.929Z,23.93
2019-03-04T06:38:06.421Z,22.60
2019-03-04T06:40:36.882Z,21.93
2019-03-04T06:43:07.480Z,23.80
2019-03-04T06:45:38.078Z,23.20
2019-03-04T06:48:08.586Z,22.37
2019-03-04T06:50:49.392Z,22.23
2019-03-04T06:54:02.339Z,20.73
2019-03-04T06:56:55.731Z,20.20
2019-03-04T07:00:11.236Z,20.07
2019-03-04T07:02:41.717Z,18.57
2019-03-04T07:05:48.120Z,19.93
2019-03-04T07:09:12.208Z,20.23
2019-03-04T07:11:49.972Z,20.90
2019-03-04T07:14:20.537Z,19.77
2019-03-04T07:16:51.974Z,18.90
2019-03-04T07:19:36.595Z,20.33
2019-03-04T07:22:07.101Z,20.53
2019-03-04T07:24:37.553Z,21.30
2019-03-04T07:27:08.037Z,21.17
2019-03-04T07:29:38.509Z,20.93
2019-03-04T07:32:09.073Z,20.97
2019-03-04T07:34:39.542Z,20.43
2019-03-04T07:37:09.642Z,22.13
2019-03-04T07:39:40.083Z,20.83
2019-03-04T07:42:10.547Z,22.20
2019-03-04T07:44:41.053Z,23.07
2019-03-04T07:47:11.569Z,21.63
2019-03-04T07:49:42.584Z,23.50
2019-03-04T07:52:13.089Z,23.97
2019-03-04T07:54:43.600Z,22.80
2019-03-04T07:57:14.072Z,22.10
2019-03-04T07:59:44.597Z,22.23
2019-03-04T08:02:15.061Z,23.87
2019-03-04T08:04:45.527Z,23.63
2019-03-04T08:07:51.040Z,24.37
2019-03-04T08:11:16.022Z,21.83
2019-03-04T08:13:54.017Z,22.40
2019-03-04T08:16:24.479Z,22.97
2019-03-04T08:18:54.969Z,23.43
2019-03-04T08:21:28.512Z,24.43
2019-03-04T08:23:59.018Z,24.23
2019-03-04T08:26:29.757Z,24.13
2019-03-04T08:29:00.273Z,24.80
2019-03-04T08:31:30.843Z,23.97
2019-03-04T08:34:01.353Z,23.73
2019-03-04T08:36:31.820Z,23.90
2019-03-04T08:39:02.326Z,22.50
2019-03-04T08:41:32.799Z,22.00
2019-03-04T08:44:03.310Z,22.90
2019-03-04T08:46:33.788Z,23.10
2019-03-04T08:49:04.279Z,23.03
2019-03-04T08:51:34.745Z,23.93
2019-03-04T08:54:05.250Z,23.40
2019-03-04T08:56:35.742Z,23.00
2019-03-04T08:59:06.199Z,23.73
2019-03-04T09:01:36.701Z,23.57
2019-03-04T09:04:07.211Z,22.77
2019-03-04T09:06:37.775Z,21.50
2019-03-04T09:09:09.117Z,21.57
2019-03-04T09:11:39.685Z,23.27
2019-03-04T09:14:10.194Z,21.37
2019-03-04T09:16:40.760Z,22.70
2019-03-04T09:19:11.269Z,20.60
2019-03-04T09:21:41.745Z,20.53
2019-03-04T09:24:12.342Z,22.47
2019-03-04T09:26:42.802Z,20.77
2019-03-04T09:29:13.295Z,20.33
2019-03-04T09:31:43.754Z,19.63
2019-03-04T09:34:14.400Z,20.60
2019-03-04T09:36:44.862Z,19.23
2019-03-04T09:39:17.002Z,20.57
2019-03-04T09:41:47.505Z,20.23
2019-03-04T09:44:17.974Z,19.43
2019-03-04T09:46:48.483Z,19.07
2019-03-04T09:49:18.940Z,18.60
2019-03-04T09:51:49.403Z,19.13
2019-03-04T09:54:19.858Z,19.40
2019-03-04T09:56:50.360Z,19.63
2019-03-04T09:59:20.822Z,20.03
2019-03-04T10:01:55.187Z,18.63
2019-03-04T10:05:17.098Z,19.73
2019-03-04T10:08:13.536Z,19.40
2019-03-04T10:11:20.742Z,18.93
2019-03-04T10:14:22.734Z,18.47
2019-03-04T10:17:12.811Z,18.47
2019-03-04T10:19:55.790Z,18.20
2019-03-04T10:22:48.725Z,17.97
2019-03-04T10:26:11.595Z,18.20
2019-03-04T10:29:19.987Z,17.73
2019-03-04T10:32:13.218Z,17.87
2019-03-04T10:35:19.778Z,18.90
2019-03-04T10:38:22.843Z,18.93
2019-03-04T10:41:23.110Z,19.13
2019-03-04T10:44:28.900Z,18.23
2019-03-04T10:47:02.611Z,17.43
2019-03-04T10:49:35.353Z,17.17
2019-03-04T10:52:06.083Z,14.70
2019-03-04T10:54:36.546Z,14.77
2019-03-04T10:57:07.062Z,15.40
2019-03-04T10:59:37.523Z,15.50
2019-03-04T11:02:08.185Z,14.57
2019-03-04T11:04:38.681Z,13.33
2019-03-04T11:07:09.274Z,15.30
2019-03-04T11:09:39.737Z,15.27
2019-03-04T11:12:10.342Z,13.50
2019-03-04T11:14:40.812Z,16.80
2019-03-04T11:17:11.326Z,15.77
2019-03-04T11:19:41.842Z,15.17
2019-03-04T11:22:12.405Z,14.73
2019-03-04T11:24:42.913Z,15.10
2019-03-04T11:27:13.489Z,14.80
2019-03-04T11:29:43.994Z,14.50
2019-03-04T11:32:14.510Z,13.17
2019-03-04T11:34:44.974Z,13.03
2019-03-04T11:37:15.478Z,12.87
2019-03-04T11:40:00.481Z,12.50
2019-03-04T11:42:31.077Z,12.67
2019-03-04T11:45:01.683Z,12.07
2019-03-04T11:47:32.148Z,12.30
2019-03-04T11:50:02.621Z,11.77
2019-03-04T11:52:33.138Z,12.03
2019-03-04T11:55:03.642Z,11.87
2019-03-04T11:57:34.280Z,10.67
2019-03-04T12:00:09.210Z,9.83
2019-03-04T12:02:39.815Z,10.10
2019-03-04T12:05:10.998Z,10.73
2019-03-04T12:07:41.590Z,16.73
2019-03-04T12:10:15.498Z,14.10
2019-03-04T12:12:46.227Z,9.73
2019-03-04T12:15:17.457Z,9.93
2019-03-04T12:17:48.024Z,10.17
2019-03-04T12:20:18.730Z,9.80
2019-03-04T12:22:49.288Z,9.40
2019-03-04T12:25:20.065Z,10.90
2019-03-04T12:27:50.524Z,9.60
2019-03-04T12:30:21.247Z,10.40
2019-03-04T12:32:52.749Z,9.43
2019-03-04T12:35:23.451Z,9.10
2019-03-04T12:37:53.899Z,13.53
2019-03-04T12:40:24.644Z,14.53
2019-03-04T12:42:55.109Z,11.43
2019-03-04T12:45:33.909Z,8.50
2019-03-04T12:47:57.881Z,9.03
2019-03-04T12:50:28.536Z,8.77
2019-03-04T12:52:59.049Z,9.30
2019-03-04T12:55:29.603Z,8.30
2019-03-04T12:58:00.159Z,8.20
2019-03-04T13:00:31.938Z,7.97
2019-03-04T13:03:02.402Z,8.13
2019-03-04T13:05:33.008Z,9.07
2019-03-04T13:08:03.512Z,8.17
2019-03-04T13:10:34.165Z,8.50
2019-03-04T13:13:04.792Z,8.53
2019-03-04T13:15:35.446Z,9.03
2019-03-04T13:18:05.983Z,8.17
2019-03-04T13:20:36.540Z,7.63
2019-03-04T13:23:08.132Z,7.80
2019-03-04T13:25:38.667Z,7.17
2019-03-04T13:28:09.164Z,7.40
2019-03-04T13:30:40.025Z,8.03
2019-03-04T13:33:10.743Z,7.23
2019-03-04T13:35:41.457Z,7.63
2019-03-04T13:38:12.133Z,7.37
2019-03-04T13:40:44.045Z,8.20
2019-03-04T13:43:14.539Z,8.60
2019-03-04T13:45:45.183Z,7.43
2019-03-04T13:48:15.774Z,7.50
2019-03-04T13:50:46.586Z,7.37
2019-03-04T13:53:17.046Z,6.87
2019-03-04T13:55:47.534Z,7.37
2019-03-04T13:58:18.078Z,7.00
2019-03-04T14:00:48.567Z,7.47
2019-03-04T14:03:19.018Z,7.17
2019-03-04T14:05:49.470Z,7.13
2019-03-04T14:08:20.267Z,6.87
2019-03-04T14:10:50.864Z,7.13
2019-03-04T14:13:21.321Z,7.23
2019-03-04T14:15:51.846Z,6.83
2019-03-04T14:18:22.307Z,7.27
2019-03-04T14:20:52.798Z,7.03
2019-03-04T14:23:23.287Z,7.87
2019-03-04T14:25:53.781Z,7.20
2019-03-04T14:28:24.232Z,7.03
2019-03-04T14:30:54.720Z,6.77
2019-03-04T14:33:25.171Z,6.97
2019-03-04T14:35:55.673Z,6.93
2019-03-04T14:38:26.174Z,6.77
2019-03-04T14:40:56.619Z,7.13
2019-03-04T14:43:27.123Z,6.93
2019-03-04T14:45:57.630Z,6.77
2019-03-04T14:48:28.085Z,6.73
2019-03-04T14:50:58.531Z,6.77
2019-03-04T14:53:29.041Z,6.40
2019-03-04T14:56:01.238Z,5.97
2019-03-04T14:58:31.863Z,6.43
2019-03-04T15:01:02.533Z,6.17
2019-03-04T15:03:33.000Z,5.80
2019-03-04T15:06:06.927Z,5.63
2019-03-04T15:08:35.692Z,5.07
2019-03-04T15:11:06.191Z,6.33
2019-03-04T15:13:36.689Z,5.73
2019-03-04T15:16:08.195Z,5.37
2019-03-04T15:18:38.692Z,5.80
2019-03-04T15:21:09.767Z,5.33
2019-03-04T15:23:40.251Z,5.27
2019-03-04T15:26:10.806Z,5.40
2019-03-04T15:28:41.301Z,5.03
2019-03-04T15:31:11.751Z,5.53
2019-03-04T15:33:42.340Z,5.73
2019-03-04T15:36:12.784Z,5.53
2019-03-04T15:38:43.246Z,4.90
2019-03-04T15:41:13.730Z,5.43
2019-03-04T15:43:44.192Z,4.80
2019-03-04T15:46:14.730Z,6.00
2019-03-04T15:48:45.299Z,5.33
2019-03-04T15:51:15.895Z,5.37
2019-03-04T15:53:46.396Z,5.47
2019-03-04T15:56:16.894Z,4.90
2019-03-04T15:58:47.345Z,5.73
2019-03-04T16:01:18.021Z,5.97
2019-03-04T16:03:48.506Z,5.60
2019-03-04T16:06:19.210Z,6.47
2019-03-04T16:08:49.725Z,11.53
2019-03-04T16:11:20.279Z,33.80
2019-03-04T16:13:55.160Z,39.73
2019-03-04T16:16:22.962Z,51.73
2019-03-04T16:18:53.473Z,25.93
2019-03-04T16:21:24.045Z,12.13
2019-03-04T16:23:54.526Z,8.47
2019-03-04T16:26:25.027Z,9.40
2019-03-04T16:28:55.523Z,8.63
2019-03-04T16:31:27.724Z,9.70
2019-03-04T16:33:58.237Z,11.10
2019-03-04T16:36:28.805Z,15.10
2019-03-04T16:38:59.362Z,11.90
2019-03-04T16:41:29.997Z,10.20
2019-03-04T16:44:00.471Z,8.73
2019-03-04T16:46:30.939Z,6.57
2019-03-04T16:49:01.537Z,7.30
2019-03-04T16:51:32.101Z,6.27
2019-03-04T16:54:02.603Z,7.27
2019-03-04T16:56:33.060Z,7.60
2019-03-04T16:59:03.660Z,8.00
2019-03-04T17:01:34.160Z,8.83
2019-03-04T17:04:04.767Z,9.20
2019-03-04T17:06:35.325Z,9.50
2019-03-04T17:09:18.752Z,9.40
2019-03-04T17:11:49.319Z,9.60
2019-03-04T17:14:19.933Z,9.87
2019-03-04T17:16:50.379Z,9.33
2019-03-04T17:19:20.829Z,10.33
2019-03-04T17:21:51.402Z,9.57
2019-03-04T17:24:21.907Z,9.77
2019-03-04T17:26:52.381Z,9.30
2019-03-04T17:29:22.879Z,9.40
2019-03-04T17:31:53.685Z,10.63
2019-03-04T17:34:24.180Z,9.77
2019-03-04T17:36:54.686Z,9.37
2019-03-04T17:39:25.143Z,9.17
2019-03-04T17:41:55.828Z,10.23
2019-03-04T17:44:26.313Z,18.87
2019-03-04T17:46:56.816Z,19.27
2019-03-04T17:49:27.272Z,14.10
2019-03-04T17:51:57.771Z,11.13
2019-03-04T17:54:28.242Z,11.57
2019-03-04T17:56:58.721Z,10.70
2019-03-04T17:59:29.223Z,9.90
2019-03-04T18:01:59.691Z,11.13
2019-03-04T18:04:30.169Z,10.70
2019-03-04T18:07:00.677Z,10.20
2019-03-04T18:09:31.170Z,10.83
2019-03-04T18:12:01.719Z,10.20
2019-03-04T18:14:32.182Z,10.40
2019-03-04T18:17:02.690Z,11.60
2019-03-04T18:19:33.195Z,11.67
2019-03-04T18:22:03.681Z,10.70
2019-03-04T18:24:34.147Z,10.70
2019-03-04T18:27:11.961Z,9.73
2019-03-04T18:30:11.813Z,11.00
2019-03-04T18:33:31.754Z,10.30
2019-03-04T18:36:35.607Z,10.97
2019-03-04T18:39:43.371Z,11.33
2019-03-04T18:42:50.455Z,10.87
2019-03-04T18:45:50.318Z,12.73
2019-03-04T18:48:58.719Z,19.00
2019-03-04T18:51:30.716Z,22.40
2019-03-04T18:54:12.414Z,23.97
2019-03-04T18:56:43.089Z,29.40
2019-03-04T18:59:13.590Z,31.20
2019-03-04T19:01:44.255Z,31.40
2019-03-04T19:04:14.862Z,28.53
2019-03-04T19:06:45.337Z,25.43
2019-03-04T19:09:16.065Z,27.33
2019-03-04T19:11:46.566Z,26.77
2019-03-04T19:14:17.028Z,25.80
2019-03-04T19:16:47.533Z,24.33
2019-03-04T19:19:18.000Z,22.87
2019-03-04T19:21:48.706Z,23.47
2019-03-04T19:24:19.162Z,24.33
2019-03-04T19:26:49.657Z,18.80
2019-03-04T19:29:20.122Z,18.73
2019-03-04T19:31:50.642Z,17.10
2019-03-04T19:34:21.291Z,19.00
2019-03-04T19:36:51.753Z,19.93
2019-03-04T19:39:22.373Z,22.07
2019-03-04T19:41:52.845Z,29.10
2019-03-04T19:44:23.345Z,28.37
2019-03-04T19:46:53.914Z,18.13
2019-03-04T19:49:24.425Z,17.77
2019-03-04T19:51:54.887Z,16.07
2019-03-04T19:54:25.483Z,18.10
2019-03-04T19:56:55.924Z,20.70
2019-03-04T19:59:26.425Z,21.43
2019-03-04T20:01:57.018Z,21.60
2019-03-04T20:04:27.688Z,21.60
2019-03-04T20:06:58.301Z,21.30
2019-03-04T20:09:28.806Z,22.93
2019-03-04T20:11:59.426Z,21.57
2019-03-04T20:14:29.992Z,23.87
2019-03-04T20:17:00.489Z,21.80
2019-03-04T20:19:31.054Z,21.10
2019-03-04T20:22:01.549Z,20.10
2019-03-04T20:24:32.052Z,19.63
2019-03-04T20:27:02.552Z,20.20
2019-03-04T20:29:33.036Z,20.87
2019-03-04T20:32:03.504Z,21.20
2019-03-04T20:34:34.001Z,20.80
2019-03-04T20:37:04.709Z,21.43
2019-03-04T20:39:35.176Z,20.33
2019-03-04T20:42:05.677Z,22.03
2019-03-04T20:44:36.355Z,22.77
2019-03-04T20:47:06.863Z,22.30
2019-03-04T20:49:37.324Z,23.07
2019-03-04T20:52:07.813Z,21.40
2019-03-04T20:54:38.315Z,23.10
2019-03-04T20:57:08.768Z,21.43
2019-03-04T20:59:39.257Z,24.57
2019-03-04T21:02:09.810Z,24.97
2019-03-04T21:04:40.471Z,23.23
2019-03-04T21:07:11.458Z,23.67
2019-03-04T21:09:42.152Z,24.53
2019-03-04T21:12:12.756Z,24.03
2019-03-04T21:14:43.358Z,23.07
2019-03-04T21:17:13.979Z,23.37
2019-03-04T21:19:44.435Z,25.53
2019-03-04T21:22:15.038Z,24.03
2019-03-04T21:24:45.624Z,27.40
2019-03-04T21:27:16.364Z,25.37
2019-03-04T21:30:26.159Z,26.10
2019-03-04T21:33:08.416Z,28.73
2019-03-04T21:36:05.128Z,26.93
2019-03-04T21:38:35.961Z,26.03
2019-03-04T21:41:50.967Z,28.83
2019-03-04T21:44:44.929Z,27.83
2019-03-04T21:47:25.976Z,28.77
2019-03-04T21:49:57.482Z,28.67
2019-03-04T21:53:08.687Z,30.07
2019-03-04T21:55:50.450Z,40.70
2019-03-04T21:58:21.034Z,35.80
2019-03-04T22:00:59.089Z,33.53
2019-03-04T22:03:32.694Z,34.30
2019-03-04T22:06:03.603Z,33.13
2019-03-04T22:08:34.207Z,33.03
2019-03-04T22:11:05.029Z,33.23
2019-03-04T22:13:35.649Z,33.57
2019-03-04T22:16:06.226Z,32.67
2019-03-04T22:18:36.869Z,34.43
2019-03-04T22:21:16.294Z,34.33
2019-03-04T22:23:39.857Z,35.73
2019-03-04T22:26:10.333Z,34.87
2019-03-04T22:28:40.864Z,35.57
2019-03-04T22:31:11.324Z,35.40
2019-03-04T22:33:41.835Z,35.33
2019-03-04T22:36:12.465Z,36.80
2019-03-04T22:38:43.129Z,38.43
2019-03-04T22:41:13.939Z,39.97
2019-03-04T22:43:44.535Z,41.10
2019-03-04T22:46:14.973Z,39.33
2019-03-04T22:48:45.450Z,38.67
2019-03-04T22:51:15.971Z,38.80
2019-03-04T22:53:46.433Z,38.40
2019-03-04T22:56:16.949Z,37.60
2019-03-04T22:58:47.426Z,35.57
2019-03-04T23:01:44.757Z,33.80
2019-03-04T23:04:35.512Z,32.20
2019-03-04T23:07:21.074Z,32.53
2019-03-04T23:10:22.203Z,31.67
2019-03-04T23:13:08.969Z,28.97
2019-03-04T23:15:39.452Z,30.37
2019-03-04T23:18:09.987Z,31.37
2019-03-04T23:20:40.459Z,33.70
2019-03-04T23:23:10.927Z,33.80
2019-03-04T23:25:41.400Z,34.13
2019-03-04T23:28:11.842Z,33.77
2019-03-04T23:30:42.312Z,35.07
2019-03-04T23:33:12.968Z,35.30
2019-03-04T23:35:43.401Z,32.87
2019-03-04T23:38:13.830Z,33.87
2019-03-04T23:40:44.404Z,34.23
2019-03-04T23:43:14.849Z,32.60
2019-03-04T23:45:45.319Z,36.30
2019-03-04T23:48:15.733Z,35.10
2019-03-04T23:50:46.195Z,32.53
2019-03-04T23:53:16.808Z,34.53
2019-03-04T23:55:47.263Z,32.57
2019-03-04T23:58:17.710Z,30.97
